Data for 05/13/2009

Time Sea-Level Adjusted Pressure Absolute Pressure Temperature Relative Humidity Dew Point   
(mb) (inHg) (mb) (inHg) (C) (F) (%) (C) (F)
00:05 1013 29.91 842 24.86 1.1 34 48 -8.7 16.4
00:10 1013 29.91 842 24.86 1.1 33.9 49 -8.5 16.8
00:15 1013 29.91 842 24.86 0.9 33.7 50 -8.3 17
00:20 1013 29.91 843 24.89 0.8 33.4 53 -7.8 17.9
00:25 1014 29.94 843 24.89 0.8 33.4 51 -8.3 17
00:30 1014 29.94 843 24.89 0.8 33.5 52 -7.9 17.7
00:35 1014 29.94 843 24.89 0.8 33.4 52 -8 17.5
00:40 1014 29.94 843 24.89 0.8 33.5 51 -8.1 17.4
00:45 1014 29.94 843 24.89 0.8 33.4 52 -7.9 17.7
00:50 1014 29.94 843 24.89 0.7 33.3 52 -8.1 17.5
00:55 1014 29.94 843 24.89 0.7 33.3 52 -8.1 17.5
01:00 1014 29.94 843 24.89 0.7 33.2 51 -8.3 17.1
01:05 1014 29.94 843 24.89 0.6 33.1 52 -8.2 17.2
01:10 1014 29.94 843 24.89 0.5 32.9 52 -8.2 17.2
01:15 1014 29.94 843 24.89 0.5 32.8 50 -8.7 16.3
01:20 1014 29.94 843 24.89 0.4 32.6 49 -9.1 15.6
01:25 1014 29.94 843 24.89 0.3 32.6 48 -9.6 14.8
01:30 1014 29.94 843 24.89 0.4 32.8 48 -9.4 15.1
01:35 1014 29.94 843 24.89 0.4 32.7 47 -9.6 14.7
01:40 1014 29.94 844 24.92 0.5 32.9 46 -9.8 14.3
01:45 1014 29.94 844 24.92 0.6 33.1 46 -9.8 14.3
01:50 1014 29.94 844 24.92 0.7 33.2 45 -9.9 14.1
01:55 1014 29.94 844 24.92 0.8 33.4 45 -9.8 14.4
02:00 1015 29.97 844 24.92 0.7 33.3 48 -9 15.8
02:05 1015 29.97 844 24.92 0.6 33 51 -8.4 16.9
02:10 1015 29.97 844 24.92 0.5 32.9 48 -9.3 15.3
02:15 1015 29.97 844 24.92 0.6 33.1 47 -9.5 14.9
02:20 1015 29.97 844 24.92 0.8 33.4 48 -9 15.7
02:25 1015 29.97 844 24.92 0.8 33.5 48 -9 15.9
02:30 1015 29.97 844 24.92 0.9 33.6 48 -9 15.8
02:35 1015 29.97 844 24.92 0.9 33.6 49 -8.7 16.3
02:40 1015 29.97 844 24.92 0.9 33.6 49 -8.8 16.2
02:45 1015 29.97 844 24.92 0.9 33.6 49 -8.7 16.4
02:50 1015 29.97 844 24.92 1 33.7 48 -9 15.8
02:55 1015 29.97 844 24.92 0.9 33.7 49 -8.7 16.4
03:00 1015 29.97 844 24.92 1 33.7 49 -8.7 16.4
03:05 1015 29.97 844 24.92 1 33.8 49 -8.6 16.6
03:10 1015 29.97 844 24.92 0.9 33.7 49 -8.5 16.7
03:15 1015 29.97 844 24.92 0.8 33.4 52 -8.1 17.4
03:20 1015 29.97 844 24.92 0.7 33.3 49 -8.8 16.2
03:25 1015 29.97 844 24.92 0.6 33.2 53 -8 17.7
03:30 1015 29.97 844 24.92 0.4 32.8 53 -8.1 17.4
03:35 1015 29.97 844 24.92 0.3 32.6 54 -8 17.7
03:40 1015 29.97 844 24.92 0.3 32.6 53 -8.1 17.4
03:45 1015 29.97 844 24.92 0.4 32.7 52 -8.4 16.8
03:50 1015 29.97 844 24.92 0.5 32.9 51 -8.5 16.7
03:55 1015 29.97 844 24.92 0.5 32.9 51 -8.4 16.8
04:00 1015 29.97 844 24.92 0.6 33 50 -8.7 16.4
04:05 1015 29.97 844 24.92 0.6 33.1 49 -9 15.8
04:10 1015 29.97 844 24.92 0.7 33.2 50 -8.6 16.6
04:15 1015 29.97 844 24.92 0.7 33.3 49 -8.8 16.2
04:20 1015 29.97 845 24.95 0.8 33.4 49 -8.8 16.1
04:25 1015 29.97 845 24.95 0.8 33.5 49 -8.7 16.4
04:30 1015 29.97 845 24.95 0.8 33.5 49 -8.7 16.4
04:35 1015 29.97 845 24.95 0.9 33.6 50 -8.4 16.9
04:40 1015 29.97 845 24.95 0.9 33.6 52 -7.9 17.9
04:45 1016 30 845 24.95 0.8 33.4 54 -7.4 18.6
04:50 1016 30 845 24.95 0.8 33.4 53 -7.8 18
04:55 1016 30 845 24.95 0.8 33.4 53 -7.9 17.9
05:00 1016 30 845 24.95 0.8 33.4 51 -8.1 17.4
05:05 1016 30 845 24.95 0.8 33.5 51 -8.2 17.2
05:10 1016 30 845 24.95 0.9 33.6 51 -8.1 17.5
05:15 1016 30 845 24.95 0.9 33.7 50 -8.4 16.9
05:20 1016 30 845 24.95 0.9 33.6 51 -8.2 17.3
05:25 1016 30 845 24.95 1 33.8 51 -8.2 17.3
05:30 1016 30 845 24.95 0.8 33.5 51 -8.2 17.2
05:35 1016 30 845 24.95 0.9 33.7 51 -8.1 17.4
05:40 1016 30 846 24.98 1 33.7 52 -7.7 18.1
05:45 1016 30 846 24.98 1 33.7 54 -7.2 19
05:50 1016 30 846 24.98 0.8 33.5 55 -7.2 19
05:55 1017 30.03 846 24.98 0.8 33.5 56 -6.9 19.6
06:00 1017 30.03 846 24.98 0.8 33.4 56 -7 19.4
06:05 1017 30.03 846 24.98 0.8 33.5 55 -7.1 19.2
06:10 1017 30.03 846 24.98 0.9 33.6 55 -7.1 19.2
06:15 1017 30.03 846 24.98 0.9 33.7 55 -7.2 19.1
06:20 1017 30.03 846 24.98 1 33.8 53 -7.5 18.5
06:25 1017 30.03 846 24.98 1.1 33.9 51 -7.9 17.8
06:30 1017 30.03 846 24.98 1.1 33.9 52 -7.6 18.3
06:35 1017 30.03 846 24.98 1.1 34 51 -7.9 17.9
06:40 1017 30.03 846 24.98 1.2 34.2 50 -8.1 17.4
06:45 1017 30.03 846 24.98 1.2 34.2 50 -8.2 17.2
06:50 1017 30.03 846 24.98 1.2 34.1 51 -7.8 18
06:55 1017 30.03 846 24.98 1.1 34.1 50 -8.2 17.2
07:00 1017 30.03 847 25.01 1.2 34.1 50 -8 17.5
07:05 1017 30.03 847 25.01 1.2 34.1 51 -8 17.6
07:10 1018 30.06 847 25.01 1.2 34.1 53 -7.5 18.5
07:15 1018 30.06 847 25.01 1.2 34.1 55 -6.9 19.6
07:20 1018 30.06 847 25.01 1.1 34 55 -7 19.4
07:25 1018 30.06 847 25.01 1.1 34.1 53 -7.5 18.6
07:30 1018 30.06 847 25.01 1.3 34.3 52 -7.5 18.5
07:35 1018 30.06 847 25.01 1.3 34.4 51 -7.8 17.9
07:40 1018 30.06 847 25.01 1.4 34.6 50 -7.8 18
07:45 1018 30.06 847 25.01 1.5 34.8 50 -7.9 17.8
07:50 1018 30.06 847 25.01 1.6 34.9 49 -8 17.6
07:55 1018 30.06 847 25.01 1.7 35 50 -7.6 18.3
08:00 1018 30.06 848 25.04 1.7 35 50 -7.6 18.4
08:05 1018 30.06 848 25.04 1.6 35 51 -7.3 18.8
08:10 1019 30.09 848 25.04 1.7 35 52 -7.1 19.2
08:15 1019 30.09 848 25.04 1.7 35.1 53 -6.9 19.6
08:20 1019 30.09 848 25.04 1.9 35.4 52 -6.8 19.7
08:25 1019 30.09 848 25.04 2 35.5 52 -7 19.4
08:30 1019 30.09 848 25.04 2.1 35.8 49 -7.4 18.6
08:35 1019 30.09 848 25.04 2.3 36.2 47 -7.7 18.1
08:40 1019 30.09 848 25.04 2.5 36.5 48 -7.5 18.4
08:45 1019 30.09 848 25.04 2.7 36.8 45 -8.2 17.3
08:50 1019 30.09 848 25.04 2.8 37.1 43 -8.6 16.6
08:55 1019 30.09 848 25.04 3 37.4 43 -8.5 16.7
09:00 1019 30.09 848 25.04 3.3 37.9 43 -8.1 17.4
09:05 1019 30.09 848 25.04 3.3 38 42 -8.4 16.9
09:10 1019 30.09 848 25.04 3.5 38.3 41 -8.6 16.6
09:15 1019 30.09 848 25.04 3.4 38.2 42 -8.2 17.2
09:20 1019 30.09 848 25.04 3.5 38.2 42 -8.3 17
09:25 1019 30.09 849 25.07 3.4 38.1 43 -7.9 17.8
09:30 1019 30.09 849 25.07 3.4 38.2 41 -8.5 16.7
09:35 1019 30.09 849 25.07 3.3 37.9 42 -8.5 16.7
09:40 1019 30.09 849 25.07 3.5 38.2 42 -8.2 17.3
09:45 1019 30.09 849 25.07 3.6 38.5 42 -8.3 17.1
09:50 1019 30.09 849 25.07 3.6 38.5 41 -8.6 16.5
09:55 1019 30.09 849 25.07 3.9 38.9 40 -8.5 16.8
10:00 1020 30.12 849 25.07 3.8 38.9 40 -8.6 16.5
10:05 1020 30.12 849 25.07 3.9 39 41 -8.3 17.1
10:10 1020 30.12 849 25.07 4 39.2 40 -8.4 16.9
10:15 1020 30.12 849 25.07 4 39.2 40 -8.2 17.2
10:20 1020 30.12 849 25.07 4 39.1 41 -8.2 17.2
10:25 1020 30.12 849 25.07 4.3 39.7 39 -8.5 16.7
10:30 1020 30.12 849 25.07 4.4 39.9 39 -8.4 16.8
10:35 1020 30.12 849 25.07 4.4 39.9 40 -8 17.6
10:40 1020 30.12 849 25.07 4.6 40.3 38 -8.5 16.7
10:45 1020 30.12 849 25.07 4.4 39.9 39 -8.3 17.1
10:50 1020 30.12 849 25.07 4.7 40.4 38 -8.3 17.1
10:55 1020 30.12 849 25.07 4.9 40.7 38 -8.4 16.8
11:00 1020 30.12 849 25.07 5.1 41.1 37 -8.3 17.1
11:05 1020 30.12 849 25.07 5.3 41.6 36 -8.7 16.4
11:10 1020 30.12 849 25.07 5.3 41.5 37 -8.4 16.9
11:15 1020 30.12 849 25.07 5.3 41.6 37 -8.2 17.3
11:20 1020 30.12 849 25.07 5.5 41.9 36 -8.5 16.8
11:25 1020 30.12 849 25.07 5.6 42.1 37 -8 17.7
11:30 1020 30.12 849 25.07 5.9 42.5 35 -8.4 16.8
11:35 1020 30.12 849 25.07 5.9 42.7 36 -8.1 17.5
11:40 1020 30.12 849 25.07 6 42.7 35 -8.5 16.7
11:45 1020 30.12 849 25.07 6.2 43.1 36 -7.8 17.9
11:50 1020 30.12 849 25.07 6.7 44.1 33 -8.3 17
11:55 1020 30.12 849 25.07 7 44.6 34 -8 17.7
12:00 1020 30.12 849 25.07 6.9 44.4 34 -8 17.6
12:05 1020 30.12 849 25.07 6.7 44.1 34 -8.2 17.2
12:10 1020 30.12 849 25.07 7.1 44.8 32 -8.5 16.7
12:15 1020 30.12 849 25.07 7.3 45.1 32 -8.5 16.6
12:20 1020 30.12 849 25.07 7.5 45.5 32 -8.1 17.4
12:25 1020 30.12 849 25.07 7.5 45.5 33 -7.9 17.8
12:30 1020 30.12 849 25.07 7 44.6 33 -8.2 17.3
12:35 1020 30.12 849 25.07 6.2 43.2 33 -8.8 16.2
12:40 1020 30.12 849 25.07 6.6 43.9 33 -8.5 16.8
12:45 1020 30.12 849 25.07 7.6 45.6 31 -8.4 16.9
12:50 1020 30.12 849 25.07 8.2 46.7 30 -8.2 17.2
12:55 1020 30.12 849 25.07 8.3 47 31 -8 17.5
13:00 1020 30.12 849 25.07 9 48.2 28 -8.7 16.4
13:05 1020 30.12 849 25.07 9.8 49.7 29 -7.3 18.8
13:10 1020 30.12 849 25.07 10.2 50.4 27 -8 17.6
13:15 1020 30.12 849 25.07 10.5 50.8 27 -7.6 18.4
13:20 1020 30.12 849 25.07 9.8 49.7 29 -7.3 18.8
13:25 1020 30.12 849 25.07 10 50 27 -7.9 17.7
13:30 1020 30.12 849 25.07 10.3 50.5 28 -7.6 18.4
13:35 1020 30.12 849 25.07 10.6 51.1 27 -7.8 18
13:40 1020 30.12 849 25.07 10.5 50.8 28 -7.5 18.5
13:45 1020 30.12 849 25.07 11.1 51.9 28 -6.8 19.8
13:50 1020 30.12 849 25.07 11.4 52.5 27 -7.1 19.2
13:55 1020 30.12 849 25.07 10.8 51.5 27 -7.6 18.2
14:00 1020 30.12 849 25.07 10.2 50.3 28 -7.4 18.6
14:05 1020 30.12 849 25.07 10.4 50.7 27 -7.8 18
14:10 1019 30.09 849 25.07 11.1 52.1 27 -7 19.3
14:15 1019 30.09 849 25.07 10.8 51.5 26 -8 17.6
14:20 1019 30.09 849 25.07 10.6 51.1 27 -7.5 18.6
14:25 1019 30.09 849 25.07 10.5 50.8 27 -7.6 18.3
14:30 1019 30.09 848 25.04 10.2 50.3 28 -7.7 18.1
14:35 1019 30.09 848 25.04 11.3 52.4 27 -7 19.4
14:40 1019 30.09 848 25.04 11.2 52.1 26 -7.6 18.3
14:45 1019 30.09 848 25.04 11.3 52.3 25 -8.1 17.4
14:50 1019 30.09 848 25.04 11.3 52.4 26 -7.5 18.5
14:55 1019 30.09 848 25.04 11.3 52.3 26 -7.4 18.7
15:00 1019 30.09 848 25.04 12.5 54.4 24 -7.6 18.3
15:05 1019 30.09 848 25.04 12.5 54.4 26 -6.7 19.9
15:10 1019 30.09 848 25.04 12.5 54.6 24 -7.7 18.1
15:15 1019 30.09 848 25.04 12.5 54.5 24 -7.5 18.5
15:20 1019 30.09 848 25.04 12.6 54.7 25 -7 19.4
15:25 1019 30.09 848 25.04 11.6 52.9 27 -6.8 19.8
15:30 1019 30.09 848 25.04 10.3 50.5 30 -6.6 20.1
15:35 1019 30.09 848 25.04 10.3 50.6 28 -7.3 18.9
15:40 1019 30.09 848 25.04 11.5 52.6 27 -6.9 19.5
15:45 1019 30.09 848 25.04 10.6 51 28 -7.1 19.3
15:50 1019 30.09 848 25.04 10.1 50.2 28 -7.4 18.7
15:55 1019 30.09 848 25.04 10.5 50.9 28 -7.4 18.6
16:00 1018 30.06 848 25.04 10.7 51.3 27 -7.3 18.8
16:05 1019 30.09 848 25.04 10.9 51.6 28 -6.9 19.6
16:10 1018 30.06 848 25.04 10.5 50.9 29 -6.8 19.8
16:15 1018 30.06 848 25.04 10.7 51.2 29 -6.6 20.1
16:20 1018 30.06 848 25.04 10.5 50.8 30 -6.4 20.4
16:25 1018 30.06 848 25.04 10.8 51.4 29 -6.7 20
16:30 1018 30.06 848 25.04 11.2 52.2 29 -5.9 21.3
16:35 1018 30.06 847 25.01 10.7 51.2 29 -6.8 19.8
16:40 1018 30.06 847 25.01 11 51.8 28 -6.7 19.9
16:45 1018 30.06 847 25.01 11 51.8 27 -7.2 19
16:50 1018 30.06 847 25.01 11.5 52.8 27 -6.7 19.9
16:55 1018 30.06 847 25.01 11.3 52.3 27 -6.9 19.5
17:00 1018 30.06 847 25.01 11.4 52.4 26 -7.4 18.7
17:05 1018 30.06 847 25.01 12 53.5 25 -7.5 18.5
17:10 1018 30.06 847 25.01 12.3 54.2 25 -7 19.5
17:15 1018 30.06 847 25.01 12.7 54.8 24 -7.4 18.7
17:20 1018 30.06 847 25.01 12.8 55.1 24 -7.4 18.7
17:25 1018 30.06 847 25.01 12.3 54.2 24 -7.8 18
17:30 1018 30.06 847 25.01 12.3 54.2 25 -7.2 19
17:35 1018 30.06 847 25.01 12.2 53.9 26 -7 19.4
17:40 1017 30.03 847 25.01 12.4 54.3 24 -7.5 18.5
17:45 1017 30.03 847 25.01 12.7 54.9 27 -5.6 21.9
17:50 1017 30.03 847 25.01 11.5 52.8 29 -5.9 21.3
17:55 1017 30.03 846 24.98 11 51.8 29 -6.3 20.7
18:00 1017 30.03 846 24.98 11 51.9 29 -6.4 20.4
18:05 1017 30.03 846 24.98 11.1 51.9 29 -6.4 20.4
18:10 1017 30.03 846 24.98 11.1 52 28 -6.5 20.4
18:15 1017 30.03 846 24.98 11.4 52.5 28 -6.2 20.8
18:20 1017 30.03 846 24.98 11 51.9 28 -6.7 20
18:25 1017 30.03 846 24.98 11 51.8 28 -6.7 19.9
18:30 1017 30.03 846 24.98 11.1 52 28 -6.7 20
18:35 1017 30.03 846 24.98 10.8 51.4 28 -6.9 19.5
18:40 1017 30.03 846 24.98 11.3 52.3 28 -6.7 20
18:45 1017 30.03 846 24.98 11.4 52.4 28 -6.7 19.9
18:50 1016 30 846 24.98 11.3 52.3 28 -6.3 20.6
18:55 1017 30.03 846 24.98 11.4 52.4 28 -6.7 20
19:00 1017 30.03 846 24.98 11.1 51.9 28 -6.7 19.9
19:05 1017 30.03 846 24.98 10.8 51.4 28 -6.8 19.7
19:10 1017 30.03 846 24.98 10.8 51.4 28 -6.8 19.7
19:15 1016 30 846 24.98 11 51.9 28 -6.9 19.5
19:20 1016 30 846 24.98 10.9 51.6 28 -6.8 19.8
19:25 1016 30 845 24.95 10.8 51.4 29 -6.7 19.9
19:30 1016 30 845 24.95 10.8 51.5 28 -7 19.3
19:35 1016 30 845 24.95 10.7 51.3 28 -6.9 19.5
19:40 1016 30 845 24.95 10.7 51.2 28 -7.1 19.2
19:45 1016 30 845 24.95 10.6 51.2 28 -7 19.4
19:50 1016 30 845 24.95 10.6 51.1 28 -7 19.4
19:55 1016 30 845 24.95 10.5 50.8 28 -7.1 19.3
20:00 1016 30 845 24.95 10.4 50.8 29 -6.8 19.8
20:05 1016 30 845 24.95 10.4 50.7 29 -6.8 19.7
20:10 1016 30 845 24.95 10.3 50.6 29 -6.8 19.7
20:15 1016 30 845 24.95 10.2 50.3 30 -6.7 20
20:20 1016 30 845 24.95 10.1 50.1 31 -6.4 20.5
20:25 1016 30 845 24.95 10 49.9 32 -6.1 21.1
20:30 1016 30 845 24.95 9.8 49.6 31 -6.6 20.1
20:35 1016 30 845 24.95 9.7 49.4 32 -6.3 20.6
20:40 1016 30 845 24.95 9.7 49.4 32 -6.3 20.7
20:45 1016 30 845 24.95 9.5 49 35 -5.4 22.3
20:50 1016 30 845 24.95 9.1 48.3 38 -4.4 24.1
20:55 1016 30 845 24.95 8.7 47.6 41 -3.7 25.3
21:00 1016 30 845 24.95 8.4 47 41 -4.3 24.3
21:05 1016 30 845 24.95 8.2 46.8 42 -3.8 25.2
21:10 1016 30 845 24.95 8 46.4 42 -4 24.8
21:15 1016 30 845 24.95 8 46.4 44 -3.5 25.7
21:20 1016 30 845 24.95 7.6 45.6 41 -4.7 23.6
21:25 1016 30 845 24.95 7.5 45.4 38 -5.8 21.5
21:30 1016 30 845 24.95 7.5 45.6 38 -5.9 21.4
21:35 1016 30 845 24.95 7.3 45.2 35 -7.2 19
21:40 1016 30 845 24.95 7.5 45.5 31 -8.7 16.3
21:45 1016 30 845 24.95 8.3 46.9 27 -9.5 15
21:50 1016 30 845 24.95 8.6 47.5 28 -8.9 16.1
21:55 1016 30 845 24.95 8.4 47.1 29 -8.8 16.2
22:00 1016 30 845 24.95 8.2 46.8 28 -9.3 15.3
22:05 1015 29.97 845 24.95 8.3 47 28 -9.3 15.3
22:10 1016 30 845 24.95 8.2 46.8 29 -8.7 16.4
22:15 1016 30 845 24.95 8.2 46.7 28 -9.2 15.4
22:20 1016 30 845 24.95 8.1 46.6 28 -9.4 15.1
22:25 1015 29.97 845 24.95 8.1 46.5 27 -9.6 14.7
22:30 1015 29.97 845 24.95 8 46.4 28 -9.2 15.4
22:35 1015 29.97 845 24.95 7.8 46.1 28 -9.4 15.1
22:40 1015 29.97 845 24.95 7.8 46 27 -9.8 14.3
22:45 1015 29.97 844 24.92 8.2 46.8 25 -10.9 12.4
22:50 1015 29.97 844 24.92 8.7 47.6 24 -10.9 12.3
22:55 1015 29.97 844 24.92 8.6 47.5 25 -10.2 13.7
23:00 1015 29.97 844 24.92 8.4 47.1 27 -9.8 14.4
23:05 1015 29.97 844 24.92 8.2 46.8 26 -10 14
23:10 1015 29.97 844 24.92 8.3 46.9 25 -10.6 12.8
23:15 1015 29.97 844 24.92 8.3 47 26 -10.1 13.9
23:20 1015 29.97 844 24.92 8.3 46.9 25 -10.7 12.8
23:25 1015 29.97 844 24.92 8.4 47.1 24 -11.1 12.1
23:30 1015 29.97 844 24.92 8.4 47.1 25 -10.6 12.9
23:35 1015 29.97 844 24.92 8.3 47 25 -10.8 12.5
23:40 1014 29.94 844 24.92 8.4 47.1 24 -11 12.1
23:45 1014 29.94 844 24.92 8.6 47.5 23 -11.7 11
23:50 1014 29.94 844 24.92 8.8 47.8 21 -12.4 9.6
23:55 1014 29.94 844 24.92 8.7 47.6 24 -11 12.2
24:00 1014 29.94 844 24.92 8.5 47.3 21 -12.5 9.5